createdAt,value
2023-02-16T00:01:50.867Z,150092.44
2023-02-16T00:04:24.163Z,150108.84
2023-02-16T00:06:50.994Z,150064.72
2023-02-16T00:09:17.409Z,150053.38
2023-02-16T00:12:02.430Z,150055.88
2023-02-16T00:14:28.588Z,150020.59
2023-02-16T06:08:46.938Z,149889.53
2023-02-16T06:11:31.422Z,149845.47
2023-02-16T06:13:58.747Z,149858.03
2023-02-16T06:16:26.677Z,149865.63
2023-02-16T06:18:53.451Z,149897.13
2023-02-16T06:21:20.416Z,149883.25
2023-02-16T06:23:46.747Z,149918.53
2023-02-16T06:26:12.717Z,149888.28
2023-02-16T06:28:38.507Z,149879.47
2023-02-16T06:31:04.615Z,149883.25
2023-02-16T06:33:30.686Z,149871.91
2023-02-16T06:35:56.648Z,149869.38
2023-02-16T06:38:22.562Z,149858.03
2023-02-16T06:40:54.044Z,149880.75
2023-02-16T06:43:20.509Z,149878.19
2023-02-16T06:45:47.216Z,149876.91
2023-02-16T06:48:13.565Z,149917.28
2023-02-16T06:50:39.413Z,149902.16
2023-02-16T06:53:05.754Z,149909.69
2023-02-16T06:55:35.911Z,149912.19
2023-02-16T06:58:05.405Z,149899.63
2023-02-16T07:00:31.732Z,149929.84
2023-02-16T07:02:57.738Z,149936.19
2023-02-16T07:05:24.182Z,149874.41
2023-02-16T07:07:50.290Z,149892.03
2023-02-16T07:10:16.167Z,149882.00
2023-02-16T07:12:41.980Z,149900.88
2023-02-16T07:15:08.536Z,149884.50
2023-02-16T07:17:34.334Z,149914.75
2023-02-16T07:20:00.264Z,149937.44
2023-02-16T07:22:26.093Z,149967.66
2023-02-16T07:24:51.938Z,150008.00
2023-02-16T07:27:17.752Z,150039.50
2023-02-16T07:29:46.004Z,150043.31
2023-02-16T07:32:11.894Z,150034.47
2023-02-16T07:34:37.732Z,150014.28
2023-02-16T07:37:04.486Z,150072.28
2023-02-16T07:39:30.320Z,150054.63
2023-02-16T07:41:56.106Z,150081.13
2023-02-16T07:44:21.940Z,150065.97
2023-02-16T07:46:47.740Z,150077.34
2023-02-16T07:49:13.581Z,150042.06
2023-02-16T07:51:39.904Z,150038.22
2023-02-16T07:54:06.298Z,150014.28
2023-02-16T07:56:34.158Z,150040.78
2023-02-16T07:59:01.379Z,150074.78
2023-02-16T08:01:29.172Z,150072.28
2023-02-16T08:03:55.558Z,150095.00
2023-02-16T08:06:22.298Z,150139.09
2023-02-16T08:08:48.322Z,150166.88
2023-02-16T08:11:23.187Z,150153.00
2023-02-16T08:13:49.744Z,150154.25
2023-02-16T08:16:18.602Z,150169.38
2023-02-16T08:18:44.597Z,150165.63
2023-02-16T08:21:15.467Z,150155.50
2023-02-16T08:23:46.771Z,150154.25
2023-02-16T08:26:17.944Z,150139.09
2023-02-16T08:28:45.937Z,150156.75
2023-02-16T08:31:13.530Z,150163.06
2023-02-16T08:33:39.619Z,150166.88
2023-02-16T08:36:08.817Z,150129.00
2023-02-16T08:38:35.296Z,150140.38
2023-02-16T08:41:01.196Z,150154.25
2023-02-16T08:43:26.953Z,150170.66
2023-02-16T08:45:53.122Z,150231.16
2023-02-16T08:48:19.213Z,150227.41
2023-02-16T08:50:46.421Z,150231.16
2023-02-16T08:53:14.588Z,150263.97
2023-02-16T08:55:40.473Z,150252.59
2023-02-16T08:58:06.470Z,150234.94
2023-02-16T09:00:34.882Z,150197.09
2023-02-16T09:03:01.467Z,150155.50
2023-02-16T09:05:30.389Z,150207.22
2023-02-16T09:07:56.911Z,150169.38
2023-02-16T09:10:22.798Z,150160.53
2023-02-16T09:12:49.170Z,150203.44
2023-02-16T09:15:15.776Z,150175.69
2023-02-16T09:17:42.245Z,150209.72
2023-02-16T09:20:09.354Z,150219.84
2023-02-16T09:22:35.317Z,150234.94
2023-02-16T09:25:01.113Z,150233.69
2023-02-16T09:27:26.913Z,150223.63
2023-02-16T09:29:52.921Z,150251.34
2023-02-16T09:32:18.823Z,150256.41
2023-02-16T09:34:45.489Z,150328.38
2023-02-16T09:37:11.357Z,150385.16
2023-02-16T09:39:37.105Z,150446.97
2023-02-16T09:42:27.731Z,150532.81
2023-02-16T09:45:00.616Z,150550.50
2023-02-16T09:47:33.964Z,150582.06
2023-02-16T09:50:04.440Z,150565.66
2023-02-16T09:52:41.833Z,150588.38
2023-02-16T09:55:12.620Z,150568.19
2023-02-16T09:57:41.362Z,150652.78
2023-02-16T10:00:31.562Z,150637.63
2023-02-16T10:03:15.331Z,150616.16
2023-02-16T10:05:58.032Z,150623.72
2023-02-16T10:08:29.178Z,150752.56
2023-02-16T10:11:27.821Z,151401.38
2023-02-16T10:13:59.150Z,152225.22
2023-02-16T10:16:34.199Z,152535.00
2023-02-16T10:19:07.424Z,152956.84
2023-02-16T10:21:33.412Z,152319.13
2023-02-16T10:24:06.928Z,151539.41
2023-02-16T10:26:35.978Z,151322.88
2023-02-16T10:29:07.708Z,151158.41
2023-02-16T10:31:40.173Z,151938.56
2023-02-16T10:34:45.096Z,152484.19
2023-02-16T10:37:23.273Z,151642.00
2023-02-16T10:40:31.449Z,151125.50
2023-02-16T10:43:10.586Z,151121.72
2023-02-16T10:45:49.639Z,151435.56
2023-02-16T10:48:20.320Z,151664.78
2023-02-16T10:50:57.906Z,151515.34
2023-02-16T10:53:46.950Z,151326.66
2023-02-16T10:56:40.792Z,151258.31
2023-02-16T10:59:30.231Z,150969.97
2023-02-16T11:01:58.415Z,150846.06
2023-02-16T11:04:33.429Z,150666.66
2023-02-16T11:07:13.457Z,150630.03
2023-02-16T11:09:41.301Z,150606.06
2023-02-16T11:12:26.345Z,150597.22
2023-02-16T11:15:19.119Z,150611.09
2023-02-16T11:17:59.269Z,150559.31
2023-02-16T11:20:47.026Z,150555.53
2023-02-16T11:23:27.727Z,150529.03
2023-02-16T11:26:11.034Z,150529.03
2023-02-16T11:28:43.264Z,150551.75
2023-02-16T11:31:09.345Z,150559.31
2023-02-16T11:33:37.297Z,150569.44
2023-02-16T11:36:17.957Z,150592.16
2023-02-16T11:38:59.312Z,150613.59
2023-02-16T11:41:26.544Z,150616.16
2023-02-16T11:43:52.852Z,150617.44
2023-02-16T11:46:22.223Z,150614.91
2023-02-16T11:48:48.911Z,150563.13
2023-02-16T11:51:27.768Z,150559.31
2023-02-16T11:54:03.890Z,150598.50
2023-02-16T11:56:32.923Z,150612.34
2023-02-16T11:59:20.999Z,150647.72
2023-02-16T12:02:33.421Z,150787.94
2023-02-16T12:05:38.549Z,151173.59
2023-02-16T12:08:32.861Z,151652.09
2023-02-16T12:11:27.843Z,151725.56
2023-02-16T12:14:11.837Z,151695.19
2023-02-16T12:16:48.114Z,151530.50
2023-02-16T12:19:32.564Z,151259.59
2023-02-16T12:22:22.294Z,151183.69
2023-02-16T12:25:03.468Z,151133.09
2023-02-16T12:27:55.176Z,151038.25
2023-02-16T12:30:52.101Z,150985.16
2023-02-16T12:33:36.502Z,151039.50
2023-02-16T12:36:11.079Z,151164.72
2023-02-16T12:38:46.022Z,151112.84
2023-02-16T12:41:27.776Z,151105.28
2023-02-16T12:43:59.606Z,151138.19
2023-02-16T12:46:42.223Z,151091.38
2023-02-16T12:49:24.568Z,150983.88
2023-02-16T12:51:59.142Z,150956.09
2023-02-16T12:54:43.918Z,150819.53
2023-02-16T12:57:15.125Z,150829.66
2023-02-16T12:59:56.768Z,150805.63
2023-02-16T13:02:46.369Z,150766.47
2023-02-16T13:05:30.481Z,150768.97
2023-02-16T13:08:11.960Z,150750.03
2023-02-16T13:10:54.063Z,150709.63
2023-02-16T13:13:28.804Z,150710.88
2023-02-16T13:16:04.585Z,150710.88
2023-02-16T13:18:34.661Z,150717.19
2023-02-16T13:21:10.414Z,150755.06
2023-02-16T13:23:59.606Z,150753.81
2023-02-16T13:26:41.136Z,150756.34
2023-02-16T13:29:22.099Z,150763.94
2023-02-16T13:32:00.036Z,150733.59
2023-02-16T13:34:46.614Z,150734.88
2023-02-16T13:37:33.770Z,150739.97
2023-02-16T13:40:15.143Z,150755.06
2023-02-16T13:43:08.290Z,150748.78
2023-02-16T13:45:40.429Z,150686.91
2023-02-16T13:48:15.646Z,150696.97
2023-02-16T13:50:42.175Z,150708.38
2023-02-16T13:53:16.473Z,150700.75
2023-02-16T13:55:42.418Z,150681.81
2023-02-16T13:58:14.141Z,150689.41
2023-02-16T14:00:44.376Z,150665.38
2023-02-16T14:03:31.418Z,150670.47
2023-02-16T14:06:31.648Z,150712.16
2023-02-16T14:09:15.803Z,150720.97
2023-02-16T14:11:58.645Z,150742.47
2023-02-16T14:14:32.143Z,150763.94
2023-02-16T14:17:22.754Z,150780.38
2023-02-16T14:19:48.615Z,150849.88
2023-02-16T14:22:18.940Z,150853.66
2023-02-16T14:24:59.064Z,150905.53
2023-02-16T14:27:42.422Z,150991.50
2023-02-16T14:30:44.637Z,150982.63
2023-02-16T14:33:16.602Z,151007.91
2023-02-16T14:36:03.940Z,151024.34
2023-02-16T14:38:33.998Z,151000.31
2023-02-16T14:41:03.525Z,151023.06
2023-02-16T14:43:29.402Z,150986.41
2023-02-16T14:46:10.849Z,150973.81
2023-02-16T14:49:14.183Z,150980.09
2023-02-16T14:51:53.495Z,150972.50
2023-02-16T14:54:40.601Z,150980.09
2023-02-16T14:57:33.057Z,150985.16
2023-02-16T15:00:01.844Z,150988.94
2023-02-16T15:02:33.546Z,150954.78
2023-02-16T15:05:16.989Z,150966.19
2023-02-16T15:07:45.817Z,150971.22
2023-02-16T15:10:17.952Z,150939.66
2023-02-16T15:12:44.066Z,150935.84
2023-02-16T15:15:18.931Z,150889.09
2023-02-16T15:17:47.271Z,150886.53
2023-02-16T15:20:26.907Z,150901.75
2023-02-16T15:22:56.247Z,150910.56
2023-02-16T15:25:29.479Z,150932.06
2023-02-16T15:28:10.182Z,150947.22
2023-02-16T15:30:40.044Z,150964.94
2023-02-16T15:33:22.339Z,150963.66
2023-02-16T15:35:53.706Z,150935.84
2023-02-16T15:38:23.385Z,150930.78
2023-02-16T15:40:54.744Z,150873.88
2023-02-16T15:43:37.746Z,150881.44
2023-02-16T15:46:07.402Z,150839.75
2023-02-16T15:48:37.634Z,150851.13
2023-02-16T15:51:14.858Z,150859.97
2023-02-16T15:53:52.285Z,150856.19
2023-02-16T15:56:30.569Z,150849.88
2023-02-16T15:59:00.913Z,150814.50
2023-02-16T16:01:33.517Z,150805.63
2023-02-16T16:04:21.157Z,150834.72
2023-02-16T16:06:50.040Z,150846.06
2023-02-16T16:09:25.469Z,150853.66
2023-02-16T16:11:55.250Z,150798.06
2023-02-16T16:14:22.164Z,150798.06
2023-02-16T16:16:48.731Z,150792.97
2023-02-16T16:19:20.558Z,150779.13
2023-02-16T16:21:50.639Z,150787.94
2023-02-16T16:24:39.143Z,150761.44
2023-02-16T16:27:12.330Z,150748.78
2023-02-16T16:29:41.508Z,150709.63
2023-02-16T16:32:23.026Z,150723.53
2023-02-16T16:34:49.597Z,150680.56
2023-02-16T16:37:27.602Z,150673.00
2023-02-16T16:40:03.469Z,150676.78
2023-02-16T16:42:31.803Z,150664.13
2023-02-16T16:45:00.978Z,150679.28
2023-02-16T16:47:32.371Z,150650.28
2023-02-16T16:50:09.792Z,150657.84
2023-02-16T16:52:42.953Z,150604.78
2023-02-16T16:55:20.939Z,150583.34
2023-02-16T16:58:10.092Z,150618.69
2023-02-16T17:00:40.321Z,150604.78
2023-02-16T17:03:08.212Z,150579.56
2023-02-16T17:05:35.171Z,150573.22
2023-02-16T17:08:01.231Z,150592.16
2023-02-16T17:10:27.152Z,150565.66
2023-02-16T17:12:56.256Z,150541.63
2023-02-16T17:15:44.886Z,150578.28
2023-02-16T17:18:16.469Z,150554.28
2023-02-16T17:20:42.841Z,150555.53
2023-02-16T17:23:13.693Z,150575.72
2023-02-16T17:25:40.048Z,150527.78
2023-02-16T17:28:06.510Z,150545.47
2023-02-16T17:30:32.682Z,150566.91
2023-02-16T17:32:59.342Z,150553.00
2023-02-16T17:35:25.491Z,150498.72
2023-02-16T17:37:51.289Z,150494.94
2023-02-16T17:40:19.891Z,150468.41
2023-02-16T17:42:46.430Z,150478.53
2023-02-16T17:45:14.732Z,150454.56
2023-02-16T17:47:45.906Z,150472.25
2023-02-16T17:50:14.047Z,150460.88
2023-02-16T17:52:43.497Z,150429.31
2023-02-16T17:55:10.483Z,150435.63
2023-02-16T17:57:36.920Z,150440.69
2023-02-16T18:00:05.396Z,150401.56
2023-02-16T18:02:31.355Z,150391.44
2023-02-16T18:04:57.247Z,150378.81
2023-02-16T18:07:23.088Z,150405.34
2023-02-16T18:09:49.012Z,150412.88
2023-02-16T18:12:14.917Z,150396.47
2023-02-16T18:14:40.857Z,150396.47
2023-02-16T18:17:07.430Z,150412.88
2023-02-16T18:19:33.497Z,150406.59
2023-02-16T18:22:00.737Z,150393.97
2023-02-16T18:24:26.601Z,150392.69
2023-02-16T18:26:54.056Z,150387.66
2023-02-16T18:29:19.913Z,150361.16
2023-02-16T18:31:46.954Z,150393.97
2023-02-16T18:34:13.241Z,150387.66
2023-02-16T18:36:39.311Z,150373.78
2023-02-16T18:39:06.507Z,150357.38
2023-02-16T18:41:33.082Z,150380.06
2023-02-16T18:43:59.039Z,150388.94
2023-02-16T18:46:25.098Z,150375.03
2023-02-16T18:48:51.015Z,150357.38
2023-02-16T18:51:17.124Z,150340.97
2023-02-16T18:53:44.062Z,150368.75
2023-02-16T18:56:11.537Z,150371.25
2023-02-16T18:58:37.872Z,150347.31
2023-02-16T19:01:25.171Z,150386.41
2023-02-16T19:03:51.120Z,150353.59
2023-02-16T19:06:17.104Z,150358.63
2023-02-16T19:08:43.014Z,150332.16
2023-02-16T19:11:08.838Z,150323.28
2023-02-16T19:13:34.872Z,150323.28
2023-02-16T19:16:00.787Z,150339.69
2023-02-16T19:18:28.484Z,150340.97
2023-02-16T19:20:54.625Z,150335.94
2023-02-16T19:23:20.685Z,150335.94
2023-02-16T19:25:46.464Z,150337.19
2023-02-16T19:28:12.278Z,150354.84
2023-02-16T19:30:38.373Z,150340.97
2023-02-16T19:33:04.728Z,150338.44
2023-02-16T19:35:30.631Z,150333.41
2023-02-16T19:37:56.664Z,150351.06
2023-02-16T19:40:22.531Z,150343.47
2023-02-16T19:42:48.845Z,150335.94
2023-02-16T19:45:14.717Z,150359.88
2023-02-16T19:47:40.650Z,150361.16
2023-02-16T19:50:06.901Z,150334.66
2023-02-16T19:52:32.754Z,150348.56
2023-02-16T19:54:58.588Z,150335.94
2023-02-16T19:57:24.465Z,150362.41
2023-02-16T19:59:50.261Z,150339.69
2023-02-16T20:02:16.373Z,150351.06
2023-02-16T20:04:45.124Z,150352.34
2023-02-16T20:07:10.977Z,150356.09
2023-02-16T20:09:36.851Z,150335.94
2023-02-16T20:12:03.981Z,150349.81
2023-02-16T20:14:30.040Z,150357.38
2023-02-16T20:16:55.923Z,150344.78
2023-02-16T20:19:21.818Z,150382.63
2023-02-16T20:21:47.636Z,150366.22
2023-02-16T20:24:14.138Z,150375.03
2023-02-16T20:26:43.930Z,150353.59
2023-02-16T20:29:12.376Z,150363.72
2023-02-16T20:31:41.948Z,150373.78
2023-02-16T20:34:08.252Z,150393.97
2023-02-16T20:36:35.204Z,150383.91
2023-02-16T20:39:01.200Z,150356.09
2023-02-16T20:41:27.374Z,150353.59
2023-02-16T20:43:53.621Z,150344.78
2023-02-16T20:46:22.709Z,150313.22
2023-02-16T20:48:49.496Z,150310.72
2023-02-16T20:51:16.296Z,150309.47
2023-02-16T20:53:42.691Z,150271.50
2023-02-16T20:56:16.004Z,150248.81
2023-02-16T20:58:43.764Z,150271.50
2023-02-16T21:01:20.668Z,150229.91
2023-02-16T21:03:47.484Z,150245.06
2023-02-16T21:06:14.861Z,150253.84
2023-02-16T21:08:40.884Z,150238.75
2023-02-16T21:11:07.299Z,150238.75
2023-02-16T21:13:33.628Z,150237.50
2023-02-16T21:15:59.700Z,150222.34
2023-02-16T21:18:25.755Z,150238.75
2023-02-16T21:20:51.769Z,150205.97
2023-02-16T21:23:18.037Z,150203.44
2023-02-16T21:25:44.213Z,150211.00
2023-02-16T21:28:10.166Z,150212.25
2023-02-16T21:30:40.212Z,150209.72
2023-02-16T21:33:06.106Z,150219.84
2023-02-16T21:35:32.656Z,150217.28
2023-02-16T21:37:58.694Z,150237.50
2023-02-16T21:40:43.514Z,150209.72
2023-02-16T21:43:10.389Z,150222.34
2023-02-16T21:45:36.314Z,150228.66
2023-02-16T21:48:20.550Z,150237.50
2023-02-16T21:50:46.679Z,150223.63
2023-02-16T21:53:12.674Z,150214.75
2023-02-16T21:55:57.513Z,150190.81
2023-02-16T21:58:26.076Z,150237.50
2023-02-16T22:00:52.629Z,150255.16
2023-02-16T22:03:19.705Z,150229.91
2023-02-16T22:05:45.887Z,150237.50
2023-02-16T22:08:14.368Z,150234.94
2023-02-16T22:10:40.708Z,150232.41
2023-02-16T22:13:07.961Z,150248.81
2023-02-16T22:15:36.582Z,150248.81
2023-02-16T22:18:05.556Z,150261.44
2023-02-16T22:20:31.769Z,150272.81
2023-02-16T22:22:57.542Z,150305.63
2023-02-16T22:25:23.453Z,150291.78
2023-02-16T22:27:49.363Z,150284.19
2023-02-16T22:30:15.361Z,150275.34
2023-02-16T22:32:41.144Z,150299.34
2023-02-16T22:35:07.212Z,150257.69
2023-02-16T22:37:33.364Z,150272.81
2023-02-16T22:39:59.427Z,150269.00
2023-02-16T22:42:25.664Z,150258.94
2023-02-16T22:44:51.519Z,150260.19
2023-02-16T22:47:17.698Z,150281.63
2023-02-16T22:49:43.558Z,150256.41
2023-02-16T22:52:10.635Z,150258.94
2023-02-16T22:54:37.197Z,150276.59
2023-02-16T22:57:03.343Z,150284.19
2023-02-16T22:59:29.158Z,150289.22
2023-02-16T23:01:54.996Z,150286.72
2023-02-16T23:04:20.879Z,150265.22
2023-02-16T23:06:46.816Z,150289.22
2023-02-16T23:09:16.348Z,150281.63
2023-02-16T23:11:42.665Z,150272.81
2023-02-16T23:14:15.463Z,150299.34
2023-02-16T23:16:50.556Z,150293.06
2023-02-16T23:19:19.732Z,150308.16
2023-02-16T23:21:46.800Z,150300.59
2023-02-16T23:24:16.520Z,150334.66
2023-02-16T23:26:42.586Z,150356.09
2023-02-16T23:29:08.979Z,150351.06
2023-02-16T23:31:37.111Z,150358.63
2023-02-16T23:34:04.411Z,150370.00
2023-02-16T23:36:32.005Z,150390.19
2023-02-16T23:39:04.039Z,150399.03
2023-02-16T23:41:29.846Z,150407.84
2023-02-16T23:43:55.876Z,150417.97
2023-02-16T23:46:22.630Z,150400.31
2023-02-16T23:48:48.882Z,150407.84
2023-02-16T23:51:14.702Z,150438.16
2023-02-16T23:53:40.518Z,150443.19
2023-02-16T23:56:08.211Z,150440.69
2023-02-16T23:58:40.490Z,150446.97
